Time;durP1;ratioP1;P1;durP2;ratioP2;P2;SDS_P1;SDS_P2;PMS_P1;PMS_P2;Temp;Humidity;BMP_temperature;BMP_pressure;BME280_temperature;BME280_humidity;BME280_pressure;Samples;Min_cycle;Max_cycle;Signal;HPM_P1;HPM_P2
2022/01/06 00:00:32;;;;;;;3.50;1.00;;;;;;;1.27;100.00;99576.00;4990374;28;20219;-75
2022/01/06 00:02:59;;;;;;;4.83;0.83;;;;;;;1.24;100.00;99582.88;4992684;28;20308;-75
2022/01/06 00:05:25;;;;;;;4.17;1.13;;;;;;;1.19;100.00;99580.31;4992446;28;20219;-75
2022/01/06 00:07:53;;;;;;;3.20;0.90;;;;;;;1.15;100.00;99576.06;4990344;28;20200;-75
2022/01/06 00:10:19;;;;;;;2.37;1.33;;;;;;;1.10;100.00;99580.38;4990882;28;20211;-75
2022/01/06 00:13:00;;;;;;;2.90;1.40;;;;;;;1.06;100.00;99586.38;4986625;28;20232;-75
2022/01/06 00:15:33;;;;;;;2.90;1.20;;;;;;;1.06;100.00;99589.81;4990042;28;20304;-75
2022/01/06 00:18:16;;;;;;;3.10;1.10;;;;;;;1.06;100.00;99594.09;4992811;28;20213;-75
2022/01/06 00:23:31;;;;;;;3.93;1.20;;;;;;;1.12;100.00;99589.75;4965061;28;20241;-75
2022/01/06 00:25:59;;;;;;;6.43;1.53;;;;;;;1.18;100.00;99588.03;4994504;28;20682;-75
2022/01/06 00:28:26;;;;;;;2.53;1.20;;;;;;;1.19;100.00;99589.75;4982800;28;20224;-75
2022/01/06 00:30:53;;;;;;;4.40;1.60;;;;;;;1.21;100.00;99596.56;4994121;28;20212;-75
2022/01/06 00:33:20;;;;;;;4.77;1.10;;;;;;;1.24;100.00;99619.69;4986007;28;20220;-75
2022/01/06 00:35:46;;;;;;;3.43;1.17;;;;;;;1.27;100.00;99641.94;4990355;28;20710;-75
2022/01/06 00:38:13;;;;;;;4.40;1.30;;;;;;;1.08;100.00;99618.88;4995380;28;20196;-75
2022/01/06 00:40:41;;;;;;;2.97;0.90;;;;;;;0.82;100.00;99633.50;4986655;28;20219;-75
2022/01/06 00:43:08;;;;;;;1.33;0.80;;;;;;;0.66;100.00;99645.50;4987937;28;20850;-75
2022/01/06 00:45:36;;;;;;;3.63;0.73;;;;;;;0.35;100.00;99638.72;4991927;28;20248;-74
2022/01/06 00:48:05;;;;;;;3.13;1.00;;;;;;;0.33;100.00;99631.84;4994162;28;20254;-74
2022/01/06 00:50:31;;;;;;;0.97;0.70;;;;;;;0.32;100.00;99643.84;4987542;28;20205;-74
2022/01/06 01:07:59;;;;;;;3.17;0.80;;;;;;;0.23;100.00;99650.66;4927996;29;20207;-73
2022/01/06 01:10:26;;;;;;;1.93;0.90;;;;;;;0.20;100.00;99648.97;4963076;28;20209;-74
2022/01/06 01:12:52;;;;;;;2.10;0.70;;;;;;;0.20;100.00;99653.25;4970233;28;20232;-73
2022/01/06 01:15:20;;;;;;;5.63;1.07;;;;;;;0.18;100.00;99650.66;4960326;28;20663;-74
2022/01/06 01:17:48;;;;;;;3.67;0.90;;;;;;;0.16;100.00;99668.63;4963552;28;20736;-73
2022/01/06 01:20:16;;;;;;;2.47;0.83;;;;;;;0.17;100.00;99667.75;4955705;28;20232;-74
2022/01/06 01:22:42;;;;;;;2.20;0.70;;;;;;;0.21;100.00;99668.59;4965699;28;20257;-74
2022/01/06 01:25:10;;;;;;;3.13;1.00;;;;;;;0.23;100.00;99672.03;4969786;28;20639;-74
2022/01/06 01:27:41;;;;;;;1.03;0.60;;;;;;;0.22;100.00;99679.72;4966490;28;20668;-74
2022/01/06 01:30:12;;;;;;;1.83;1.00;;;;;;;0.24;100.00;99680.56;4963547;28;20231;-74
2022/01/06 01:32:40;;;;;;;3.57;0.97;;;;;;;0.26;100.00;99681.44;4968387;28;20285;-74
2022/01/06 01:35:10;;;;;;;5.97;1.03;;;;;;;0.28;100.00;99689.97;4969671;28;20288;-73
2022/01/06 01:37:38;;;;;;;1.80;0.87;;;;;;;0.35;100.00;99695.13;4966794;28;20903;-74
2022/01/06 01:40:06;;;;;;;2.03;0.80;;;;;;;0.41;100.00;99693.41;4967122;28;20213;-74
2022/01/06 01:42:34;;;;;;;1.57;0.90;;;;;;;0.44;100.00;99693.41;4966632;28;20225;-74
2022/01/06 01:45:02;;;;;;;4.10;0.97;;;;;;;0.46;100.00;99699.38;4965505;28;20204;-74
2022/01/06 01:47:31;;;;;;;6.30;1.40;;;;;;;0.53;100.00;99703.69;4964549;28;20203;-74
2022/01/06 01:50:10;;;;;;;2.30;1.00;;;;;;;0.56;100.00;99703.66;4968202;28;20615;-74
2022/01/06 01:52:37;;;;;;;2.37;1.20;;;;;;;0.59;100.00;99710.50;4962399;28;20224;-74
2022/01/06 01:55:04;;;;;;;5.97;1.20;;;;;;;0.60;100.00;99718.22;4969471;28;20229;-74
2022/01/06 01:57:30;;;;;;;3.13;1.00;;;;;;;0.60;100.00;99715.66;4961997;28;20205;-74
2022/01/06 01:59:58;;;;;;;3.93;1.17;;;;;;;0.62;100.00;99721.63;4968519;28;20205;-73
2022/01/06 02:02:24;;;;;;;4.63;1.00;;;;;;;0.62;100.00;99725.91;4972690;28;20226;-74
2022/01/06 02:04:52;;;;;;;2.50;0.90;;;;;;;0.63;100.00;99725.03;4973185;28;20253;-74
2022/01/06 02:07:19;;;;;;;6.03;1.40;;;;;;;0.62;100.00;99731.91;4978451;28;20712;-74
2022/01/06 02:09:45;;;;;;;1.33;0.87;;;;;;;0.60;100.00;99736.19;4967863;28;20209;-74
2022/01/06 02:12:22;;;;;;;4.13;1.17;;;;;;;0.62;100.00;99742.16;4971195;28;20226;-74
2022/01/06 02:14:49;;;;;;;4.60;1.30;;;;;;;0.61;100.00;99745.56;4972104;28;20308;-73
2022/01/06 02:17:17;;;;;;;1.23;0.90;;;;;;;0.61;100.00;99752.41;4969884;28;20206;-74
2022/01/06 02:19:52;;;;;;;4.60;1.00;;;;;;;0.62;100.00;99756.72;4974441;28;20206;-74
2022/01/06 02:22:19;;;;;;;4.40;1.20;;;;;;;0.62;100.00;99751.56;4969678;28;20582;-74
2022/01/06 02:24:45;;;;;;;3.07;1.00;;;;;;;0.62;100.00;99751.56;4970553;28;20209;-73
2022/01/06 02:27:11;;;;;;;3.67;1.40;;;;;;;0.62;100.00;99754.13;4972344;28;20220;-74
2022/01/06 02:29:38;;;;;;;2.43;1.03;;;;;;;0.63;100.00;99760.97;4969984;28;20222;-74
2022/01/06 02:32:08;;;;;;;1.73;1.30;;;;;;;0.66;100.00;99758.41;4975072;28;20217;-74
2022/01/06 02:34:35;;;;;;;4.90;1.60;;;;;;;0.66;100.00;99758.41;4967758;28;20260;-74
2022/01/06 02:37:03;;;;;;;1.93;1.30;;;;;;;0.61;100.00;99758.38;4972727;28;20631;-74
2022/01/06 02:39:30;;;;;;;3.67;1.30;;;;;;;0.60;100.00;99769.53;4969112;28;20191;-74
2022/01/06 02:41:56;;;;;;;6.30;1.40;;;;;;;0.59;100.00;99770.38;4968218;28;20232;-74
2022/01/06 02:44:25;;;;;;;3.57;1.30;;;;;;;0.56;100.00;99790.88;4958737;28;20203;-74
2022/01/06 02:46:51;;;;;;;3.47;1.37;;;;;;;0.52;100.00;99776.34;4964539;28;20283;-74
2022/01/06 02:49:17;;;;;;;5.17;1.43;;;;;;;0.54;100.00;99784.91;4962388;28;20226;-75
2022/01/06 02:51:44;;;;;;;3.33;1.63;;;;;;;0.51;100.00;99793.47;4971114;28;20225;-74
2022/01/06 02:54:13;;;;;;;2.23;1.27;;;;;;;0.51;100.00;99795.16;4969635;28;20206;-76
2022/01/06 02:56:42;;;;;;;2.73;1.30;;;;;;;0.53;100.00;99803.72;4966298;28;20229;-76
2022/01/06 02:59:08;;;;;;;6.27;1.83;;;;;;;0.54;100.00;99811.41;4970163;28;20536;-76
2022/01/06 03:01:38;;;;;;;2.73;1.40;;;;;;;0.57;100.00;99810.56;4967952;28;20209;-76
2022/01/06 03:04:05;;;;;;;5.03;1.40;;;;;;;0.57;100.00;99816.53;4965337;28;20682;-77
2022/01/06 03:06:31;;;;;;;5.37;1.80;;;;;;;0.56;100.00;99827.69;4967554;28;20201;-77
2022/01/06 03:08:57;;;;;;;4.27;1.40;;;;;;;0.58;100.00;99832.78;4971495;28;20217;-76
2022/01/06 03:11:26;;;;;;;3.67;1.60;;;;;;;0.55;100.00;99827.66;4972703;28;20580;-74
2022/01/06 03:13:53;;;;;;;5.07;1.70;;;;;;;0.53;100.00;99839.63;4970998;28;20890;-77
2022/01/06 03:16:19;;;;;;;3.60;1.47;;;;;;;0.52;100.00;99843.03;4970380;28;20205;-75
2022/01/06 03:18:46;;;;;;;4.90;1.43;;;;;;;0.50;100.00;99845.59;4972208;28;20204;-74
2022/01/06 03:21:12;;;;;;;3.07;1.87;;;;;;;0.45;100.00;99843.88;4974944;28;20216;-75
2022/01/06 03:23:39;;;;;;;2.70;1.70;;;;;;;0.38;100.00;99850.69;4962901;28;20222;-75
2022/01/06 03:26:05;;;;;;;4.43;1.97;;;;;;;0.36;100.00;99867.78;4967592;28;20198;-75
2022/01/06 03:28:33;;;;;;;4.50;1.60;;;;;;;0.30;100.00;99868.63;4971045;28;20244;-75
2022/01/06 03:30:59;;;;;;;5.47;1.60;;;;;;;0.26;100.00;99855.78;4968668;28;20218;-74
2022/01/06 03:33:26;;;;;;;4.10;1.40;;;;;;;0.22;100.00;99866.91;4970679;28;20228;-75
2022/01/06 03:35:52;;;;;;;5.90;1.80;;;;;;;0.18;100.00;99866.88;4970659;28;20214;-75
2022/01/06 03:38:19;;;;;;;3.47;1.50;;;;;;;0.17;100.00;99874.56;4971823;28;20213;-75
2022/01/06 03:40:45;;;;;;;2.73;1.77;;;;;;;0.15;100.00;99882.25;4976676;28;20209;-75
2022/01/06 03:43:11;;;;;;;3.97;2.00;;;;;;;0.14;100.00;99884.78;4969930;28;20410;-75
2022/01/06 03:45:39;;;;;;;4.63;1.70;;;;;;;0.16;100.00;99895.94;4969332;28;20209;-75
2022/01/06 03:48:06;;;;;;;5.47;1.43;;;;;;;0.12;100.00;99907.88;4964723;28;20205;-74
2022/01/06 03:50:32;;;;;;;6.40;1.80;;;;;;;0.09;100.00;99899.28;4972919;28;20246;-74
2022/01/06 03:52:59;;;;;;;5.17;1.60;;;;;;;0.07;100.00;99907.00;4969945;28;20217;-75
2022/01/06 03:55:26;;;;;;;6.97;1.60;;;;;;;0.06;100.00;99920.66;4967642;28;20301;-75
2022/01/06 03:57:52;;;;;;;6.33;1.67;;;;;;;0.03;100.00;99922.34;4961811;28;20204;-75
2022/01/06 04:00:20;;;;;;;3.43;1.40;;;;;;;0.02;100.00;99933.44;4968345;28;20213;-75
2022/01/06 04:02:48;;;;;;;4.07;1.37;;;;;;;-0.01;100.00;99935.13;4976253;28;20237;-75
2022/01/06 04:05:15;;;;;;;8.67;1.50;;;;;;;-0.02;100.00;99946.25;4967181;28;20205;-75
2022/01/06 04:07:42;;;;;;;9.70;1.93;;;;;;;-0.07;100.00;99949.63;4969108;28;20209;-75
2022/01/06 04:10:10;;;;;;;2.60;1.60;;;;;;;-0.05;100.00;99961.59;4971696;28;20227;-75
2022/01/06 04:12:37;;;;;;;3.77;1.33;;;;;;;-0.08;100.00;99968.41;4968356;28;20226;-75
2022/01/06 04:15:08;;;;;;;3.60;1.70;;;;;;;-0.08;100.00;99965.84;4967618;28;20205;-75
2022/01/06 04:17:35;;;;;;;4.73;1.50;;;;;;;-0.12;100.00;99976.91;4954989;28;20682;-74
2022/01/06 04:20:06;;;;;;;5.23;1.73;;;;;;;-0.11;100.00;99976.06;4967810;28;20202;-75
2022/01/06 04:22:33;;;;;;;7.20;1.77;;;;;;;-0.11;100.00;99976.06;4969589;28;20228;-75
2022/01/06 04:24:59;;;;;;;3.83;1.70;;;;;;;-0.15;100.00;99988.00;4978716;28;20217;-75
2022/01/06 04:27:26;;;;;;;4.40;1.70;;;;;;;-0.16;100.00;99986.28;4968643;28;20209;-75
2022/01/06 04:29:52;;;;;;;3.87;1.80;;;;;;;-0.16;100.00;99988.00;4971043;28;20213;-75
2022/01/06 04:32:19;;;;;;;4.23;1.83;;;;;;;-0.17;100.00;99984.59;4967409;28;20729;-75
2022/01/06 04:34:45;;;;;;;5.40;1.87;;;;;;;-0.16;100.00;99985.44;4961737;28;20224;-75
2022/01/06 04:37:13;;;;;;;6.37;1.80;;;;;;;-0.16;100.00;99993.97;4968293;28;20206;-74
2022/01/06 04:39:39;;;;;;;3.77;2.00;;;;;;;-0.17;100.00;99996.56;4961301;28;20672;-74
2022/01/06 04:42:06;;;;;;;7.73;2.13;;;;;;;-0.16;100.00;100006.78;4966664;28;20312;-75
2022/01/06 04:44:32;;;;;;;6.00;2.00;;;;;;;-0.17;100.00;100017.06;4968263;28;20209;-74
2022/01/06 04:47:00;;;;;;;3.83;1.30;;;;;;;-0.14;100.00;100011.94;4966397;28;20201;-74
2022/01/06 04:49:27;;;;;;;4.97;1.90;;;;;;;-0.18;100.00;100023.84;4967963;28;20706;-75
2022/01/06 04:51:53;;;;;;;4.43;1.60;;;;;;;-0.16;100.00;100023.88;4969187;28;20233;-75
2022/01/06 04:54:21;;;;;;;2.33;1.50;;;;;;;-0.15;100.00;100028.16;4967910;28;20211;-75
2022/01/06 04:56:47;;;;;;;7.23;2.17;;;;;;;-0.16;100.00;100044.38;4963756;28;20215;-75
2022/01/06 04:59:14;;;;;;;5.07;1.63;;;;;;;-0.17;100.00;100048.66;4961467;28;20962;-75
2022/01/06 05:01:40;;;;;;;4.90;1.53;;;;;;;-0.17;100.00;100050.38;4962435;28;20232;-75
2022/01/06 05:04:07;;;;;;;7.77;1.60;;;;;;;-0.17;100.00;100052.94;4967652;28;20219;-75
2022/01/06 05:06:34;;;;;;;9.00;1.80;;;;;;;-0.21;100.00;100063.13;4973634;28;20583;-75
2022/01/06 05:09:00;;;;;;;6.60;1.90;;;;;;;-0.20;100.00;100067.41;4966006;28;20198;-74
2022/01/06 05:11:28;;;;;;;4.00;1.40;;;;;;;-0.23;100.00;100072.53;4966666;28;20229;-75
2022/01/06 05:13:54;;;;;;;3.13;1.50;;;;;;;-0.24;100.00;100077.63;4965409;28;20211;-75
2022/01/06 05:16:21;;;;;;;2.40;1.27;;;;;;;-0.25;100.00;100081.03;4968960;28;20201;-75
2022/01/06 05:18:48;;;;;;;5.40;1.53;;;;;;;-0.26;100.00;100094.69;4965272;28;20198;-74
2022/01/06 05:21:15;;;;;;;3.17;1.30;;;;;;;-0.29;100.00;100095.50;4963408;28;20197;-75
2022/01/06 05:23:41;;;;;;;2.23;1.30;;;;;;;-0.31;100.00;100104.03;4966638;28;20219;-75
2022/01/06 05:26:08;;;;;;;1.73;1.10;;;;;;;-0.39;100.00;100103.94;4964553;28;20403;-75
2022/01/06 05:28:36;;;;;;;1.43;1.10;;;;;;;-0.49;100.00;100109.81;4963631;28;20216;-75
2022/01/06 05:31:03;;;;;;;2.20;1.10;;;;;;;-0.61;100.00;100113.13;4959211;28;20221;-75
2022/01/06 05:33:29;;;;;;;2.10;1.30;;;;;;;-0.67;100.00;100115.59;4967833;28;20230;-75
2022/01/06 05:35:56;;;;;;;3.63;1.33;;;;;;;-0.78;100.00;100121.44;4965286;28;20284;-75
2022/01/06 05:38:22;;;;;;;4.47;1.37;;;;;;;-0.83;100.00;100127.34;4967382;28;20206;-75
2022/01/06 05:40:49;;;;;;;3.67;1.30;;;;;;;-0.91;100.00;100145.19;4964964;28;20202;-75
2022/01/06 05:43:15;;;;;;;5.87;1.03;;;;;;;-0.97;100.00;100138.28;4967461;28;20232;-75
2022/01/06 05:45:43;;;;;;;3.27;1.10;;;;;;;-1.06;100.00;100148.38;4967281;28;20682;-74
2022/01/06 05:48:10;;;;;;;3.83;1.10;;;;;;;-1.14;100.00;100155.13;4972527;28;20661;-77
2022/01/06 05:50:36;;;;;;;4.20;1.27;;;;;;;-1.19;100.00;100172.09;4964008;28;20289;-74
2022/01/06 05:53:03;;;;;;;1.67;1.00;;;;;;;-1.28;100.00;100170.28;4972302;28;20256;-74
2022/01/06 05:55:29;;;;;;;6.07;1.10;;;;;;;-1.35;100.00;100182.09;4968638;28;20206;-74
2022/01/06 05:57:55;;;;;;;1.83;0.93;;;;;;;-1.36;100.00;100194.88;4961644;28;20213;-75
2022/01/06 06:00:22;;;;;;;1.83;0.80;;;;;;;-1.44;100.00;100201.53;4972996;28;20204;-75
2022/01/06 06:02:49;;;;;;;3.60;1.00;;;;;;;-1.50;100.00;100204.88;4967227;28;20256;-75
2022/01/06 06:05:16;;;;;;;1.03;0.80;;;;;;;-1.56;100.00;100208.19;4972067;28;20198;-75
2022/01/06 06:07:42;;;;;;;2.60;1.10;;;;;;;-1.61;100.00;100214.06;4967778;28;20193;-74
2022/01/06 06:10:09;;;;;;;0.90;0.63;;;;;;;-1.68;100.00;100219.91;4968706;28;20222;-75
2022/01/06 06:12:36;;;;;;;2.67;1.10;;;;;;;-1.72;100.00;100229.22;4968317;28;20241;-75
2022/01/06 06:15:02;;;;;;;1.30;0.80;;;;;;;-1.76;100.00;100243.66;4962912;28;20204;-75
2022/01/06 06:17:28;;;;;;;1.63;1.00;;;;;;;-1.82;100.00;100240.97;4970164;28;21092;-74
2022/01/06 06:19:56;;;;;;;1.77;0.87;;;;;;;-1.86;100.00;100244.31;4972490;28;20942;-75
2022/01/06 06:22:23;;;;;;;3.43;0.90;;;;;;;-1.97;100.00;100253.47;4966389;28;20814;-75
2022/01/06 06:24:49;;;;;;;3.83;1.10;;;;;;;-2.03;100.00;100255.91;4968619;28;20651;-75
2022/01/06 06:27:15;;;;;;;3.17;1.00;;;;;;;-2.09;100.00;100266.88;4969000;28;20563;-74
2022/01/06 06:29:42;;;;;;;3.13;0.90;;;;;;;-2.15;100.00;100276.97;4971608;28;20216;-75
2022/01/06 06:32:08;;;;;;;2.00;1.17;;;;;;;-2.22;100.00;100288.75;4964898;28;20218;-75
2022/01/06 06:34:35;;;;;;;1.23;0.87;;;;;;;-2.28;100.00;100284.38;4968835;28;20209;-75
2022/01/06 06:37:03;;;;;;;0.70;0.70;;;;;;;-2.31;100.00;100293.69;4967717;28;20190;-75
2022/01/06 06:39:30;;;;;;;1.40;0.90;;;;;;;-2.34;100.00;100301.25;4967906;28;20209;-76
2022/01/06 06:41:56;;;;;;;7.23;1.37;;;;;;;-2.38;100.00;100307.16;4964570;28;20222;-75
2022/01/06 06:44:22;;;;;;;1.43;0.80;;;;;;;-2.39;100.00;100319.06;4965920;28;20202;-77
2022/01/06 06:46:49;;;;;;;1.07;0.90;;;;;;;-2.39;100.00;100323.28;4959712;28;20220;-75
2022/01/06 06:49:15;;;;;;;2.53;0.93;;;;;;;-2.40;100.00;100334.34;4972862;28;20210;-76
2022/01/06 06:51:41;;;;;;;3.27;1.00;;;;;;;-2.40;100.00;100347.97;4969227;28;20225;-76
2022/01/06 06:54:09;;;;;;;2.20;0.77;;;;;;;-2.48;100.00;100358.03;4971044;28;20221;-75
2022/01/06 06:56:36;;;;;;;3.70;1.13;;;;;;;-2.52;100.00;100363.88;4971514;28;20209;-76
2022/01/06 06:59:02;;;;;;;2.90;1.00;;;;;;;-2.59;100.00;100377.31;4965852;28;20564;-76
2022/01/06 07:01:28;;;;;;;1.07;0.90;;;;;;;-2.59;100.00;100381.56;4969395;28;20695;-76
2022/01/06 07:03:55;;;;;;;3.53;1.00;;;;;;;-2.56;100.00;100386.75;4967626;28;20706;-75
2022/01/06 07:06:22;;;;;;;5.53;1.20;;;;;;;-2.55;100.00;100403.78;4966007;28;20213;-76
2022/01/06 07:08:48;;;;;;;2.37;1.10;;;;;;;-2.62;100.00;100418.13;4965168;28;20683;-75
2022/01/06 07:11:16;;;;;;;4.93;0.93;;;;;;;-2.67;100.00;100412.03;4973903;28;20225;-75
2022/01/06 07:13:42;;;;;;;4.47;1.33;;;;;;;-2.68;100.00;100416.25;4975801;28;20476;-75
2022/01/06 07:16:09;;;;;;;3.60;0.90;;;;;;;-2.70;100.00;100427.25;4968370;28;20456;-76
2022/01/06 07:18:35;;;;;;;3.43;0.97;;;;;;;-2.77;100.00;100433.03;4964641;28;20206;-76
2022/01/06 07:21:02;;;;;;;4.63;0.97;;;;;;;-2.79;100.00;100447.47;4971462;28;20298;-75
2022/01/06 07:23:29;;;;;;;3.23;1.00;;;;;;;-2.83;100.00;100461.84;4972423;28;20280;-76
2022/01/06 07:25:55;;;;;;;3.77;0.73;;;;;;;-2.87;100.00;100471.09;4966843;28;20463;-76
2022/01/06 07:28:23;;;;;;;1.30;0.77;;;;;;;-2.84;100.00;100472.00;4971420;28;20953;-76
2022/01/06 07:30:49;;;;;;;1.40;0.80;;;;;;;-2.86;100.00;100485.56;4962857;28;21015;-76
2022/01/06 07:33:16;;;;;;;2.80;0.77;;;;;;;-2.90;100.00;100496.53;4967363;28;20981;-76
2022/01/06 07:35:42;;;;;;;3.70;0.90;;;;;;;-2.89;100.00;100493.13;4968697;28;20793;-76
2022/01/06 07:38:08;;;;;;;2.77;0.73;;;;;;;-2.90;100.00;100495.69;4967807;28;20976;-76
2022/01/06 07:40:35;;;;;;;1.87;0.70;;;;;;;-2.91;100.00;100492.22;4967393;28;20460;-76
2022/01/06 07:43:01;;;;;;;4.57;1.13;;;;;;;-2.85;100.00;100496.63;4971067;28;20487;-76
2022/01/06 07:45:29;;;;;;;1.30;0.70;;;;;;;-2.83;100.00;100507.78;4971225;28;20219;-75
2022/01/06 07:47:57;;;;;;;3.70;0.83;;;;;;;-2.80;100.00;100512.06;4964888;28;20466;-76
2022/01/06 07:50:26;;;;;;;1.30;0.80;;;;;;;-2.77;100.00;100518.13;4966452;28;20499;-75
2022/01/06 07:52:53;;;;;;;1.40;0.70;;;;;;;-2.73;100.00;100516.50;4966608;28;21006;-75
2022/01/06 07:55:19;;;;;;;3.50;1.10;;;;;;;-2.70;100.00;100527.66;4970680;28;20464;-76
2022/01/06 07:57:46;;;;;;;17.40;5.40;;;;;;;-2.72;100.00;100529.31;4962312;28;20831;-76
2022/01/06 08:00:13;;;;;;;5.67;1.23;;;;;;;-2.68;100.00;100526.00;4967718;28;20457;-76
2022/01/06 08:02:41;;;;;;;5.10;1.83;;;;;;;-2.70;100.00;100534.47;4965551;28;20507;-75
2022/01/06 08:05:09;;;;;;;6.43;3.27;;;;;;;-2.69;100.00;100531.97;4970111;28;20209;-75
2022/01/06 08:07:36;;;;;;;3.40;1.30;;;;;;;-2.63;100.00;100530.41;4962037;28;20458;-76
2022/01/06 08:10:04;;;;;;;7.73;2.80;;;;;;;-2.60;100.00;100540.66;4966218;28;20471;-76
2022/01/06 08:12:30;;;;;;;6.33;1.13;;;;;;;-2.60;100.00;100540.66;4969463;28;20479;-76
2022/01/06 08:14:57;;;;;;;2.93;1.10;;;;;;;-2.60;100.00;100543.22;4968380;28;20476;-77
2022/01/06 08:17:23;;;;;;;3.97;1.10;;;;;;;-2.47;100.00;100540.16;4965661;28;20245;-75
2022/01/06 08:19:52;;;;;;;2.07;0.90;;;;;;;-2.30;100.00;100540.59;4970094;28;20568;-76
2022/01/06 08:22:18;;;;;;;3.67;1.10;;;;;;;-2.14;100.00;100554.59;4965406;28;20461;-75
2022/01/06 08:24:44;;;;;;;4.07;1.20;;;;;;;-1.96;100.00;100560.16;4970723;28;20468;-75
2022/01/06 08:27:11;;;;;;;3.30;1.10;;;;;;;-1.88;100.00;100557.78;4970243;28;20668;-76
2022/01/06 08:29:37;;;;;;;2.87;1.10;;;;;;;-1.81;100.00;100564.78;4963789;28;20202;-76
2022/01/06 08:32:05;;;;;;;4.07;0.90;;;;;;;-1.78;100.00;100558.84;4971215;28;20754;-76
2022/01/06 08:34:31;;;;;;;1.43;1.07;;;;;;;-1.79;100.00;100568.22;4966720;28;20211;-76
2022/01/06 08:36:59;;;;;;;3.13;1.00;;;;;;;-1.78;100.00;100564.81;4974101;28;20822;-76
2022/01/06 08:39:26;;;;;;;2.90;1.03;;;;;;;-1.76;100.00;100569.97;4962682;28;20210;-76
2022/01/06 08:41:53;;;;;;;1.07;0.70;;;;;;;-1.69;100.00;100574.38;4968083;28;20236;-75
2022/01/06 08:44:21;;;;;;;3.10;0.70;;;;;;;-1.63;100.00;100578.81;4963269;28;20195;-76
2022/01/06 08:46:48;;;;;;;4.20;1.10;;;;;;;-1.57;100.00;100586.59;4965608;28;20623;-76
2022/01/06 08:49:15;;;;;;;3.60;1.33;;;;;;;-1.58;100.00;100580.63;4954715;28;20206;-76
2022/01/06 08:51:41;;;;;;;6.83;1.80;;;;;;;-1.63;100.00;100586.47;4966265;28;20230;-75
2022/01/06 08:54:11;;;;;;;3.40;1.90;;;;;;;-1.69;100.00;100581.22;4968204;28;20202;-77
2022/01/06 08:56:38;;;;;;;2.70;1.30;;;;;;;-1.75;100.00;100587.91;4965912;28;20198;-77
2022/01/06 08:59:05;;;;;;;4.33;1.87;;;;;;;-1.79;100.00;100578.44;4972933;28;20549;-78
2022/01/06 09:01:32;;;;;;;6.60;2.40;;;;;;;-1.79;100.00;100596.34;4970782;28;20750;-75
2022/01/06 09:03:58;;;;;;;2.80;1.73;;;;;;;-1.79;100.00;100590.38;4973166;28;20229;-78
2022/01/06 09:06:25;;;;;;;6.27;3.20;;;;;;;-1.79;100.00;100605.72;4970425;28;20209;-76
2022/01/06 09:08:52;;;;;;;3.77;2.53;;;;;;;-1.76;100.00;100598.09;4971021;28;20346;-77
2022/01/06 09:11:19;;;;;;;4.40;1.97;;;;;;;-1.70;100.00;100603.34;4965571;28;20249;-77
2022/01/06 09:13:46;;;;;;;7.13;3.13;;;;;;;-1.69;100.00;100617.00;4965621;28;20251;-77
2022/01/06 09:16:13;;;;;;;3.57;1.70;;;;;;;-1.66;100.00;100610.25;4970833;28;20236;-77
2022/01/06 09:18:40;;;;;;;4.10;1.60;;;;;;;-1.58;100.00;100625.81;4965469;28;20301;-76
2022/01/06 09:21:08;;;;;;;2.40;1.30;;;;;;;-1.56;100.00;100619.03;4969677;28;20528;-77
2022/01/06 09:23:35;;;;;;;2.50;1.30;;;;;;;-1.49;100.00;100623.44;4966328;28;20310;-77
2022/01/06 09:26:02;;;;;;;5.50;1.43;;;;;;;-1.45;100.00;100630.34;4968508;28;20216;-77
2022/01/06 09:28:29;;;;;;;2.97;1.53;;;;;;;-1.38;100.00;100636.47;4969842;28;20545;-77
2022/01/06 09:30:57;;;;;;;3.90;1.27;;;;;;;-1.35;100.00;100634.00;4966230;28;20217;-77
2022/01/06 09:33:24;;;;;;;3.47;1.27;;;;;;;-1.37;100.00;100638.22;4963816;28;20228;-77
2022/01/06 09:35:52;;;;;;;7.97;1.50;;;;;;;-1.37;100.00;100645.91;4965263;28;20571;-77
2022/01/06 09:38:19;;;;;;;6.10;1.67;;;;;;;-1.31;100.00;100637.50;4975786;28;20225;-77
2022/01/06 09:40:46;;;;;;;3.80;1.60;;;;;;;-1.27;100.00;100641.84;4964463;28;20199;-77
2022/01/06 09:43:13;;;;;;;1.97;1.50;;;;;;;-1.22;100.00;100643.66;4967208;28;20249;-77
2022/01/06 09:45:43;;;;;;;3.37;1.10;;;;;;;-1.18;100.00;100652.25;4973872;28;20221;-77
2022/01/06 09:48:09;;;;;;;4.07;1.23;;;;;;;-1.15;100.00;100655.75;4972911;28;20776;-76
2022/01/06 09:50:42;;;;;;;5.47;1.50;;;;;;;-1.07;100.00;100661.06;4971979;28;20644;-77
2022/01/06 09:53:10;;;;;;;3.37;1.40;;;;;;;-0.99;100.00;100664.63;4976960;28;20230;-76
2022/01/06 09:55:37;;;;;;;2.27;1.20;;;;;;;-0.89;100.00;100664.84;4983875;28;20280;-76
2022/01/06 09:58:03;;;;;;;5.93;1.47;;;;;;;-0.81;100.00;100660.72;4993658;28;20260;-76
2022/01/06 10:00:33;;;;;;;4.57;1.33;;;;;;;-0.74;100.00;100674.53;5000535;28;20209;-76
2022/01/06 10:03:02;;;;;;;4.07;1.50;;;;;;;-0.74;100.00;100670.25;4997547;28;20229;-77
2022/01/06 10:05:38;;;;;;;2.20;1.23;;;;;;;-0.72;100.00;100678.88;4991716;28;20216;-77
2022/01/06 10:08:05;;;;;;;4.03;1.30;;;;;;;-0.69;100.00;100671.22;4988342;28;20197;-77
2022/01/06 10:10:34;;;;;;;6.27;1.20;;;;;;;-0.68;100.00;100679.78;4992983;28;20197;-77
2022/01/06 10:13:06;;;;;;;4.13;1.40;;;;;;;-0.64;100.00;100676.44;4990485;28;20308;-76
2022/01/06 10:15:33;;;;;;;2.70;1.00;;;;;;;-0.63;100.00;100686.72;4990077;28;20211;-76
2022/01/06 10:18:10;;;;;;;2.70;1.10;;;;;;;-0.60;100.00;100694.50;4987756;28;20198;-77
2022/01/06 10:20:37;;;;;;;1.87;1.10;;;;;;;-0.56;100.00;100685.16;4988799;28;20205;-77
2022/01/06 10:23:11;;;;;;;4.23;1.30;;;;;;;-0.51;100.00;100682.69;4983112;28;20222;-76
2022/01/06 10:25:39;;;;;;;6.03;1.00;;;;;;;-0.51;100.00;100687.81;4988276;28;20220;-76
2022/01/06 10:28:14;;;;;;;1.87;1.03;;;;;;;-0.48;100.00;100687.88;4988106;28;20252;-77
2022/01/06 10:30:47;;;;;;;7.07;1.10;;;;;;;-0.47;100.00;100698.16;4990944;28;20220;-77
2022/01/06 10:33:15;;;;;;;2.20;0.97;;;;;;;-0.43;100.00;100710.19;4991989;28;20695;-76
2022/01/06 10:35:42;;;;;;;2.13;1.23;;;;;;;-0.43;100.00;100702.50;4988640;28;20224;-76
2022/01/06 10:38:08;;;;;;;3.43;1.20;;;;;;;-0.41;100.00;100703.38;4988760;28;20208;-77
2022/01/06 10:40:35;;;;;;;5.70;1.50;;;;;;;-0.36;100.00;100710.31;4981824;28;20212;-76
2022/01/06 10:43:05;;;;;;;3.50;1.47;;;;;;;-0.31;100.00;100714.69;4984359;28;20224;-76
2022/01/06 10:45:32;;;;;;;2.23;1.23;;;;;;;-0.29;100.00;100712.16;4988048;28;20216;-76
2022/01/06 10:48:01;;;;;;;4.57;1.27;;;;;;;-0.22;100.00;100706.31;4985475;28;20205;-76
2022/01/06 10:50:32;;;;;;;5.03;1.07;;;;;;;-0.15;100.00;100720.13;4984430;28;20660;-76
2022/01/06 10:53:01;;;;;;;3.73;1.00;;;;;;;-0.06;100.00;100716.00;4987424;28;20236;-76
2022/01/06 10:55:28;;;;;;;4.40;1.10;;;;;;;-0.04;100.00;100721.16;4986866;28;20293;-76
2022/01/06 10:57:58;;;;;;;7.07;1.40;;;;;;;-0.02;100.00;100722.94;4986097;28;20228;-76
2022/01/06 11:00:28;;;;;;;5.37;1.20;;;;;;;0.04;99.34;100734.16;4984130;28;20208;-76
2022/01/06 11:03:06;;;;;;;2.60;1.10;;;;;;;0.03;99.15;100735.84;4984994;28;20229;-76
2022/01/06 11:05:34;;;;;;;3.40;1.07;;;;;;;0.07;98.97;100737.63;4987552;28;20287;-77
2022/01/06 11:08:01;;;;;;;6.53;1.23;;;;;;;0.11;97.85;100723.16;4994389;28;20205;-76
2022/01/06 11:10:27;;;;;;;3.70;1.13;;;;;;;0.12;97.55;100736.03;4965386;28;90358;-76
2022/01/06 11:12:54;;;;;;;3.13;1.50;;;;;;;0.13;96.64;100750.56;4951230;28;20238;-76
2022/01/06 11:15:20;;;;;;;7.30;1.23;;;;;;;0.17;96.44;100744.63;4953098;28;20203;-76
2022/01/06 11:17:48;;;;;;;4.23;1.00;;;;;;;0.22;97.17;100742.16;4950822;28;20207;-76
2022/01/06 11:20:16;;;;;;;2.97;1.03;;;;;;;0.23;98.09;100740.47;4950486;28;20207;-76
2022/01/06 11:22:52;;;;;;;1.83;0.93;;;;;;;0.22;95.20;100749.00;4950712;28;20218;-76
2022/01/06 11:25:29;;;;;;;4.47;1.00;;;;;;;0.25;97.41;100751.63;4949491;29;20297;-76
2022/01/06 11:28:02;;;;;;;3.03;1.00;;;;;;;0.24;98.13;100744.75;4950429;28;20572;-76
2022/01/06 11:30:39;;;;;;;4.50;1.17;;;;;;;0.30;95.05;100761.13;4947112;29;20204;-76
2022/01/06 11:33:06;;;;;;;1.93;1.13;;;;;;;0.35;93.54;100767.22;4950261;28;20222;-76
2022/01/06 11:35:47;;;;;;;1.93;0.90;;;;;;;0.41;91.30;100766.44;4951951;28;20664;-77
2022/01/06 11:38:19;;;;;;;6.33;1.90;;;;;;;0.37;92.70;100768.09;4948064;28;20203;-76
2022/01/06 11:40:46;;;;;;;3.87;1.60;;;;;;;0.42;91.79;100773.28;4949235;28;20199;-76
2022/01/06 11:43:13;;;;;;;3.10;0.90;;;;;;;0.43;92.16;100761.34;4951972;29;20565;-77